Time;durP1;ratioP1;P1;durP2;ratioP2;P2;SDS_P1;SDS_P2;PMS_P1;PMS_P2;Temp;Humidity;BMP_temperature;BMP_pressure;BME280_temperature;BME280_humidity;BME280_pressure;Samples;Min_cycle;Max_cycle;Signal;HPM_P1;HPM_P2
2023/04/10 00:00:55;;;;;;;11.95;7.97;;;;;;;6.41;99.46;100637.06;5050826;28;20130;-67
2023/04/10 00:03:22;;;;;;;11.88;8.02;;;;;;;6.35;100.00;100652.13;5050580;28;20033;-66
2023/04/10 00:05:48;;;;;;;12.68;8.02;;;;;;;6.54;100.00;100685.72;5050335;28;20037;-67
2023/04/10 00:08:13;;;;;;;15.27;8.13;;;;;;;6.62;100.00;100692.13;5050603;28;20461;-69
2023/04/10 00:10:38;;;;;;;12.13;8.05;;;;;;;6.83;100.00;100683.88;5051095;28;20463;-65
2023/04/10 00:13:04;;;;;;;12.50;7.88;;;;;;;7.00;99.01;100676.22;5051032;28;20070;-68
2023/04/10 00:15:30;;;;;;;10.35;7.50;;;;;;;7.10;97.38;100673.34;5050846;28;20094;-64
2023/04/10 00:17:55;;;;;;;11.32;8.07;;;;;;;7.13;96.89;100673.53;5051337;28;20041;-65
2023/04/10 00:20:22;;;;;;;11.02;7.38;;;;;;;7.20;97.01;100664.47;5050058;28;20044;-65
2023/04/10 00:22:47;;;;;;;11.43;8.07;;;;;;;7.26;96.53;100658.00;5050794;28;20075;-68
2023/04/10 00:25:13;;;;;;;10.98;7.32;;;;;;;7.38;95.50;100656.88;5050548;28;20053;-64
2023/04/10 00:27:38;;;;;;;10.90;7.32;;;;;;;7.41;94.83;100663.06;5050445;28;20040;-65
2023/04/10 00:30:05;;;;;;;10.40;7.13;;;;;;;7.45;93.84;100661.50;5050652;28;20043;-64
2023/04/10 00:32:30;;;;;;;9.32;6.75;;;;;;;7.41;93.50;100657.00;5050636;28;20037;-64
2023/04/10 00:34:55;;;;;;;11.45;8.35;;;;;;;7.01;94.77;100660.91;5050621;28;20497;-65
2023/04/10 00:37:21;;;;;;;11.45;7.47;;;;;;;6.55;97.57;100654.09;5050772;28;20045;-66
2023/04/10 00:39:49;;;;;;;11.23;8.00;;;;;;;6.32;99.45;100652.81;5050618;28;20047;-69
2023/04/10 00:42:15;;;;;;;13.48;8.25;;;;;;;5.88;100.00;100646.88;5050578;28;20056;-67
2023/04/10 00:44:41;;;;;;;16.77;10.30;;;;;;;5.48;100.00;100603.50;5050326;28;20041;-70
2023/04/10 00:47:06;;;;;;;15.43;10.05;;;;;;;5.69;100.00;100641.44;5050348;28;20083;-65
2023/04/10 00:49:33;;;;;;;13.77;9.90;;;;;;;5.94;100.00;100649.78;5050336;28;20124;-69
2023/04/10 00:51:59;;;;;;;11.68;8.38;;;;;;;6.05;100.00;100639.31;5050443;28;20487;-68
2023/04/10 00:54:25;;;;;;;12.15;7.80;;;;;;;6.06;100.00;100610.31;5050614;28;20040;-65
2023/04/10 00:56:51;;;;;;;13.43;8.38;;;;;;;6.14;99.63;100637.25;5050457;28;20037;-69
2023/04/10 00:59:17;;;;;;;11.10;7.63;;;;;;;6.09;100.00;100642.16;5049018;28;20569;-68
2023/04/10 01:01:42;;;;;;;13.73;8.00;;;;;;;5.86;100.00;100596.31;5050343;28;20106;-66
2023/04/10 01:04:09;;;;;;;10.70;7.57;;;;;;;5.56;100.00;100581.81;5049921;28;20041;-69
2023/04/10 01:06:57;;;;;;;9.73;6.85;;;;;;;5.48;100.00;100599.28;5050062;28;20044;-64
2023/04/10 01:09:43;;;;;;;10.00;7.22;;;;;;;5.59;100.00;100638.31;5050010;28;20638;-65
2023/04/10 01:12:11;;;;;;;10.18;6.97;;;;;;;5.30;100.00;100632.34;5050231;28;20102;-70
2023/04/10 01:15:00;;;;;;;9.45;6.40;;;;;;;5.24;100.00;100603.81;5049806;28;20127;-69
2023/04/10 01:17:39;;;;;;;10.48;6.53;;;;;;;5.54;100.00;100634.59;5049875;28;20040;-69
2023/04/10 01:20:10;;;;;;;9.43;6.77;;;;;;;5.57;100.00;100629.69;5031111;28;20041;-69
2023/04/10 01:23:13;;;;;;;9.25;6.57;;;;;;;5.44;100.00;100628.03;5050162;28;20029;-68
2023/04/10 01:25:49;;;;;;;10.50;7.25;;;;;;;5.37;100.00;100640.41;5050009;28;20044;-70
2023/04/10 01:28:17;;;;;;;9.85;6.78;;;;;;;5.46;100.00;100638.41;5049925;28;20036;-67
2023/04/10 01:30:46;;;;;;;9.40;6.63;;;;;;;5.55;100.00;100638.94;5049908;28;20061;-69
2023/04/10 01:33:14;;;;;;;9.55;7.13;;;;;;;5.52;100.00;100636.22;5049507;28;20565;-65
2023/04/10 01:35:42;;;;;;;9.35;6.60;;;;;;;5.57;100.00;100634.81;5048709;28;20060;-70
2023/04/10 01:38:10;;;;;;;11.23;6.95;;;;;;;5.63;100.00;100636.84;5052848;28;20102;-69
2023/04/10 01:40:38;;;;;;;11.18;7.13;;;;;;;5.79;100.00;100638.63;5053463;28;20454;-68
2023/04/10 01:43:09;;;;;;;11.57;7.18;;;;;;;5.94;99.54;100639.53;5053694;28;20388;-65
2023/04/10 01:45:35;;;;;;;12.00;6.95;;;;;;;5.88;97.37;100643.41;5053396;28;20123;-66
2023/04/10 01:48:01;;;;;;;10.35;7.32;;;;;;;5.68;99.28;100635.41;5053195;28;20116;-68
2023/04/10 01:50:28;;;;;;;11.93;7.07;;;;;;;5.46;100.00;100633.28;5054037;28;20116;-66
2023/04/10 01:52:55;;;;;;;12.15;7.95;;;;;;;5.15;100.00;100575.97;5053889;28;20041;-68
2023/04/10 01:55:23;;;;;;;12.13;7.68;;;;;;;5.51;100.00;100637.88;5053440;28;20487;-69
2023/04/10 01:57:49;;;;;;;13.02;8.23;;;;;;;5.51;100.00;100647.25;5053634;28;20091;-65
2023/04/10 02:00:16;;;;;;;13.68;7.28;;;;;;;5.39;100.00;100638.81;5053089;28;20032;-67
2023/04/10 02:02:42;;;;;;;11.80;6.85;;;;;;;5.17;100.00;100633.28;5053378;28;20057;-70
2023/04/10 02:05:11;;;;;;;10.45;7.22;;;;;;;5.08;100.00;100637.81;5053467;28;20025;-69
2023/04/10 02:07:58;;;;;;;11.15;7.45;;;;;;;5.02;100.00;100635.78;5053370;28;20072;-70
2023/04/10 02:10:31;;;;;;;10.80;7.20;;;;;;;5.00;100.00;100636.47;5052930;28;20061;-68
2023/04/10 02:13:05;;;;;;;10.48;7.53;;;;;;;4.60;100.00;100633.94;5053485;28;20041;-69
2023/04/10 02:15:31;;;;;;;11.32;7.38;;;;;;;4.54;100.00;100631.91;5053247;28;20037;-68
2023/04/10 02:17:58;;;;;;;11.88;7.63;;;;;;;4.62;100.00;100637.50;5052895;28;20033;-68
2023/04/10 02:20:24;;;;;;;11.30;7.40;;;;;;;4.51;100.00;100624.94;5052746;28;20503;-65
2023/04/10 02:22:51;;;;;;;13.13;7.82;;;;;;;4.14;100.00;100594.44;5053204;28;20036;-64
2023/04/10 02:25:16;;;;;;;11.65;6.85;;;;;;;4.29;100.00;100624.34;5052972;28;20037;-68
2023/04/10 02:27:42;;;;;;;11.68;7.68;;;;;;;4.32;100.00;100633.06;5052907;28;20044;-64
2023/04/10 02:30:08;;;;;;;9.85;6.28;;;;;;;4.11;100.00;100632.59;5052837;28;20037;-69
2023/04/10 02:32:33;;;;;;;11.48;7.10;;;;;;;4.09;100.00;100612.81;5048502;28;20037;-67
2023/04/10 02:35:00;;;;;;;10.27;6.75;;;;;;;4.18;100.00;100618.53;5037221;28;20116;-66
2023/04/10 02:37:25;;;;;;;12.32;7.57;;;;;;;4.22;100.00;100617.94;5032924;28;20076;-66
2023/04/10 02:39:51;;;;;;;10.98;6.13;;;;;;;4.12;100.00;100616.44;5032863;28;20045;-66
2023/04/10 02:42:17;;;;;;;11.27;7.00;;;;;;;3.99;100.00;100599.44;5032496;28;20407;-65
2023/04/10 02:44:42;;;;;;;12.18;7.72;;;;;;;3.70;100.00;100611.19;5032791;28;20045;-64
2023/04/10 02:47:08;;;;;;;9.90;6.47;;;;;;;3.49;100.00;100612.28;5032788;28;20030;-65
2023/04/10 02:49:33;;;;;;;10.43;6.75;;;;;;;3.49;100.00;100602.97;5031145;28;20048;-68
2023/04/10 02:51:59;;;;;;;12.07;7.38;;;;;;;3.28;100.00;100561.56;5032253;28;20038;-65
2023/04/10 02:54:25;;;;;;;11.20;7.13;;;;;;;3.64;100.00;100613.31;5032284;28;20514;-68
2023/04/10 02:56:50;;;;;;;11.48;7.13;;;;;;;3.67;100.00;100610.97;5032855;28;20112;-69
2023/04/10 02:59:16;;;;;;;12.60;7.38;;;;;;;3.84;100.00;100611.22;5032319;28;20037;-69
2023/04/10 03:01:42;;;;;;;11.70;7.03;;;;;;;4.04;100.00;100620.19;5032414;28;20041;-67
2023/04/10 03:04:07;;;;;;;10.85;7.28;;;;;;;4.26;100.00;100619.94;5032105;28;20034;-64
2023/04/10 03:06:33;;;;;;;11.40;7.35;;;;;;;4.23;100.00;100583.06;5032416;28;20036;-65
2023/04/10 03:08:58;;;;;;;13.15;7.70;;;;;;;4.57;100.00;100618.44;5032150;28;20034;-66
2023/04/10 03:11:24;;;;;;;15.30;8.35;;;;;;;4.65;100.00;100627.47;5047477;28;20041;-72
2023/04/10 03:13:50;;;;;;;15.48;9.38;;;;;;;4.70;100.00;100619.28;5031850;28;20040;-69
2023/04/10 03:16:17;;;;;;;11.80;7.93;;;;;;;4.58;100.00;100620.22;5032581;28;20045;-65
2023/04/10 03:18:43;;;;;;;17.27;8.75;;;;;;;4.43;100.00;100603.09;5032507;28;20044;-66
2023/04/10 03:21:09;;;;;;;21.90;9.82;;;;;;;4.59;100.00;100625.41;5031959;28;20511;-66
2023/04/10 03:23:35;;;;;;;17.60;9.18;;;;;;;4.67;100.00;100603.78;5013063;28;20037;-67
2023/04/10 03:26:01;;;;;;;19.58;9.80;;;;;;;4.83;100.00;100620.06;5031552;28;20172;-68
2023/04/10 03:28:26;;;;;;;19.23;11.32;;;;;;;4.96;100.00;100616.59;5031999;28;20583;-71
2023/04/10 03:30:52;;;;;;;16.60;9.27;;;;;;;4.96;100.00;100614.03;5031834;28;20051;-64
2023/04/10 03:33:17;;;;;;;17.40;9.82;;;;;;;5.10;100.00;100622.56;5031753;28;20041;-68
2023/04/10 03:35:44;;;;;;;13.68;9.30;;;;;;;4.67;100.00;100562.84;5031576;28;20048;-70
2023/04/10 03:38:10;;;;;;;15.38;8.65;;;;;;;4.79;100.00;100629.22;5031533;28;20061;-68
2023/04/10 03:40:36;;;;;;;15.02;8.88;;;;;;;4.78;100.00;100626.56;5031145;28;20113;-68
2023/04/10 03:43:02;;;;;;;17.60;8.68;;;;;;;4.84;100.00;100632.94;5031322;28;20120;-68
2023/04/10 03:45:27;;;;;;;15.10;8.20;;;;;;;4.84;100.00;100627.81;5031555;28;20216;-71
2023/04/10 03:47:53;;;;;;;11.80;7.68;;;;;;;4.78;100.00;100636.81;5031669;28;20515;-68
2023/04/10 03:50:18;;;;;;;14.55;8.05;;;;;;;4.56;100.00;100619.22;5029925;28;20059;-71
2023/04/10 03:52:44;;;;;;;13.57;8.45;;;;;;;4.55;100.00;100620.91;5046430;28;20102;-67
2023/04/10 03:55:10;;;;;;;14.10;8.60;;;;;;;4.59;100.00;100645.00;5050777;28;20033;-66
2023/04/10 03:57:35;;;;;;;14.32;9.10;;;;;;;4.43;100.00;100587.75;5045488;28;20403;-68
2023/04/10 04:00:01;;;;;;;13.27;8.48;;;;;;;4.68;100.00;100620.84;5048654;28;20414;-68
2023/04/10 04:02:27;;;;;;;18.15;9.00;;;;;;;4.74;100.00;100632.28;5042313;28;20487;-66
2023/04/10 04:04:52;;;;;;;13.85;8.60;;;;;;;4.84;100.00;100629.50;5040926;28;20036;-66
2023/04/10 04:07:17;;;;;;;15.13;8.88;;;;;;;4.85;100.00;100633.84;5041107;28;20765;-67
2023/04/10 04:09:43;;;;;;;18.52;9.82;;;;;;;4.91;100.00;100635.88;5037416;28;20506;-68
2023/04/10 04:12:09;;;;;;;16.85;10.20;;;;;;;4.78;100.00;100636.81;5040941;28;20095;-65
2023/04/10 04:14:34;;;;;;;18.83;10.57;;;;;;;4.58;100.00;100627.88;5050946;28;20422;-68
2023/04/10 04:17:00;;;;;;;19.67;11.10;;;;;;;4.44;100.00;100640.66;5051167;28;20048;-66
2023/04/10 04:19:25;;;;;;;23.35;11.55;;;;;;;4.52;100.00;100636.03;5050586;28;20117;-65
2023/04/10 04:21:51;;;;;;;26.50;13.50;;;;;;;4.46;100.00;100643.31;5050769;28;20102;-69
2023/04/10 04:24:16;;;;;;;32.00;15.13;;;;;;;4.47;100.00;100637.41;5049411;28;20077;-66
2023/04/10 04:26:42;;;;;;;30.98;16.92;;;;;;;4.33;100.00;100639.94;5041862;28;20044;-72
2023/04/10 04:29:07;;;;;;;34.13;17.50;;;;;;;4.36;100.00;100634.16;5030515;28;20467;-65
2023/04/10 04:31:32;;;;;;;37.40;17.13;;;;;;;4.32;100.00;100627.97;5029178;28;20037;-64
2023/04/10 04:34:01;;;;;;;33.83;15.52;;;;;;;4.38;100.00;100636.03;5031008;28;20041;-66
2023/04/10 04:36:27;;;;;;;35.58;15.32;;;;;;;4.39;100.00;100647.16;5030908;28;20029;-65
2023/04/10 04:38:55;;;;;;;35.58;15.77;;;;;;;4.41;100.00;100642.13;5030473;28;20037;-65
2023/04/10 04:41:20;;;;;;;38.13;15.40;;;;;;;4.31;100.00;100643.19;5030679;28;20224;-67
2023/04/10 04:43:46;;;;;;;32.95;14.65;;;;;;;4.25;100.00;100647.91;5030467;28;20547;-67
2023/04/10 04:46:12;;;;;;;33.95;16.45;;;;;;;4.27;100.00;100647.22;5030688;28;20029;-68
2023/04/10 04:48:38;;;;;;;39.92;15.93;;;;;;;4.31;100.00;100646.66;5030355;28;20052;-71
2023/04/10 04:51:05;;;;;;;37.60;15.48;;;;;;;4.43;100.00;100636.31;5030709;28;20515;-68
2023/04/10 04:53:31;;;;;;;38.80;17.10;;;;;;;4.35;100.00;100604.28;5030169;28;20044;-65
2023/04/10 04:55:56;;;;;;;40.75;17.30;;;;;;;4.65;100.00;100653.06;5030355;28;20045;-65
2023/04/10 04:58:23;;;;;;;41.53;19.83;;;;;;;4.67;100.00;100642.13;5040114;28;20049;-68
2023/04/10 05:00:50;;;;;;;46.83;22.00;;;;;;;4.64;100.00;100641.06;5031465;28;20458;-71
2023/04/10 05:03:15;;;;;;;50.83;21.45;;;;;;;4.40;100.00;100632.69;5030740;28;20060;-68
2023/04/10 05:05:41;;;;;;;64.20;18.33;;;;;;;4.33;100.00;100637.41;5030071;28;20439;-66
2023/04/10 05:08:07;;;;;;;49.30;18.52;;;;;;;4.27;100.00;100636.13;5030051;28;20045;-69
2023/04/10 05:10:32;;;;;;;45.72;18.10;;;;;;;4.22;100.00;100633.25;5030438;28;20059;-67
2023/04/10 05:12:57;;;;;;;46.80;19.85;;;;;;;4.32;100.00;100634.75;5033758;28;20049;-70
2023/04/10 05:15:23;;;;;;;40.33;18.98;;;;;;;4.08;100.00;100588.06;5034276;28;20038;-69
2023/04/10 05:17:49;;;;;;;38.00;18.80;;;;;;;4.11;100.00;100606.13;5034134;28;20053;-69
2023/04/10 05:20:15;;;;;;;34.50;19.55;;;;;;;4.12;100.00;100636.00;5034202;28;20029;-65
2023/04/10 05:22:41;;;;;;;36.08;18.13;;;;;;;4.21;100.00;100651.94;5034475;28;20100;-69
2023/04/10 05:25:06;;;;;;;31.33;17.13;;;;;;;4.26;100.00;100649.69;5034022;28;20440;-65
2023/04/10 05:27:32;;;;;;;34.72;17.23;;;;;;;4.35;100.00;100643.50;5034384;28;20038;-66
2023/04/10 05:29:57;;;;;;;28.05;16.10;;;;;;;4.67;100.00;100654.91;5034395;28;20108;-69
2023/04/10 05:32:23;;;;;;;36.58;17.20;;;;;;;4.94;100.00;100660.00;5034139;28;20141;-67
2023/04/10 05:34:48;;;;;;;34.60;16.73;;;;;;;4.98;100.00;100631.25;5033971;28;20083;-70
2023/04/10 05:37:14;;;;;;;36.00;16.27;;;;;;;5.30;100.00;100657.94;5034291;28;20033;-73
2023/04/10 05:39:40;;;;;;;36.28;16.20;;;;;;;5.19;100.00;100608.63;5033832;28;20033;-68
2023/04/10 05:42:05;;;;;;;32.63;15.25;;;;;;;5.49;100.00;100641.13;5033938;28;20037;-67
2023/04/10 05:44:31;;;;;;;31.52;14.80;;;;;;;5.59;100.00;100656.25;5033963;28;20029;-68
2023/04/10 05:46:56;;;;;;;29.92;15.07;;;;;;;5.73;100.00;100658.75;5034248;28;20040;-65
2023/04/10 05:49:22;;;;;;;35.60;16.88;;;;;;;5.88;100.00;100661.34;5033940;28;20109;-67
2023/04/10 05:51:51;;;;;;;37.40;18.17;;;;;;;5.57;100.00;100582.69;5033571;28;20418;-69
2023/04/10 05:54:16;;;;;;;30.33;15.93;;;;;;;6.04;100.00;100645.22;5033842;28;20105;-66
2023/04/10 05:56:42;;;;;;;29.05;15.10;;;;;;;6.12;100.00;100651.69;5033960;28;20041;-69
2023/04/10 05:59:07;;;;;;;20.88;12.93;;;;;;;5.70;100.00;100584.31;5033815;28;20037;-69
2023/04/10 06:01:33;;;;;;;18.63;12.48;;;;;;;6.09;100.00;100652.41;5033722;28;20033;-66
2023/04/10 06:03:58;;;;;;;19.73;12.80;;;;;;;6.13;100.00;100656.00;5033673;28;20038;-66
2023/04/10 06:06:25;;;;;;;18.23;11.93;;;;;;;6.14;100.00;100650.06;5033168;28;20030;-69
2023/04/10 06:08:51;;;;;;;18.35;11.18;;;;;;;6.00;100.00;100646.72;5033410;28;20044;-67
2023/04/10 06:11:16;;;;;;;19.50;11.57;;;;;;;5.99;100.00;100647.50;5033685;28;20069;-67
2023/04/10 06:13:42;;;;;;;19.40;11.23;;;;;;;6.15;100.00;100650.16;5033320;28;20480;-70
2023/04/10 06:16:07;;;;;;;23.20;13.10;;;;;;;6.29;100.00;100662.91;5033083;28;20049;-65
2023/04/10 06:18:33;;;;;;;23.98;11.40;;;;;;;6.40;100.00;100650.69;5033198;28;20048;-69
2023/04/10 06:21:00;;;;;;;17.75;11.43;;;;;;;6.50;100.00;100650.41;5047134;28;20515;-69
2023/04/10 06:23:27;;;;;;;21.92;11.77;;;;;;;6.46;100.00;100651.91;5032671;28;20037;-67
2023/04/10 06:25:53;;;;;;;20.35;12.32;;;;;;;6.55;100.00;100651.53;5033060;28;20444;-66
2023/04/10 06:28:19;;;;;;;17.90;11.20;;;;;;;6.52;100.00;100653.06;5033094;28;20033;-69
2023/04/10 06:30:44;;;;;;;20.83;11.57;;;;;;;6.12;100.00;100579.91;5033261;28;20048;-65
2023/04/10 06:33:10;;;;;;;21.00;11.55;;;;;;;6.62;100.00;100650.22;5033018;28;20037;-73
2023/04/10 06:35:36;;;;;;;20.85;11.73;;;;;;;6.77;100.00;100663.03;5032891;28;20403;-69
2023/04/10 06:38:02;;;;;;;23.08;12.85;;;;;;;6.73;100.00;100651.69;5032545;28;20033;-65
2023/04/10 06:40:28;;;;;;;19.38;11.73;;;;;;;6.63;100.00;100622.09;5032824;28;20041;-66
2023/04/10 06:42:54;;;;;;;19.38;12.27;;;;;;;6.78;100.00;100652.84;5014067;28;20139;-66
2023/04/10 06:45:20;;;;;;;19.75;13.18;;;;;;;6.90;100.00;100654.31;5032825;28;20049;-65
2023/04/10 06:47:46;;;;;;;19.02;12.27;;;;;;;6.98;100.00;100647.91;5032887;28;20037;-69
2023/04/10 06:50:11;;;;;;;19.20;11.75;;;;;;;7.04;100.00;100658.50;5033116;28;20080;-66
2023/04/10 06:52:37;;;;;;;24.33;16.27;;;;;;;7.07;100.00;100658.66;5032730;28;20103;-68
2023/04/10 06:55:03;;;;;;;23.25;13.52;;;;;;;6.64;100.00;100621.28;5031281;28;20037;-73
2023/04/10 06:57:28;;;;;;;36.95;27.10;;;;;;;6.56;100.00;100627.66;5032280;28;20120;-70
2023/04/10 06:59:54;;;;;;;36.53;27.42;;;;;;;6.69;100.00;100666.81;5032387;28;20045;-65
2023/04/10 07:02:19;;;;;;;26.83;16.35;;;;;;;6.71;100.00;100670.38;5032566;28;20037;-68
2023/04/10 07:04:45;;;;;;;30.77;21.20;;;;;;;6.64;100.00;100653.72;5032668;28;20084;-66
2023/04/10 07:07:12;;;;;;;21.00;13.73;;;;;;;6.78;100.00;100657.09;5032171;28;20068;-69
2023/04/10 07:09:38;;;;;;;17.58;12.50;;;;;;;6.82;100.00;100652.97;5032176;28;20468;-66
2023/04/10 07:12:04;;;;;;;19.27;12.68;;;;;;;6.94;100.00;100672.53;5032134;28;20076;-72
2023/04/10 07:14:33;;;;;;;92.53;49.03;;;;;;;6.80;100.00;100683.69;5032316;28;20041;-65
2023/04/10 07:16:58;;;;;;;28.83;14.68;;;;;;;6.88;100.00;100668.72;5032458;28;20056;-65
2023/04/10 07:19:24;;;;;;;17.58;12.10;;;;;;;6.92;100.00;100673.25;5032163;28;20045;-69
2023/04/10 07:21:50;;;;;;;17.17;10.95;;;;;;;7.03;100.00;100673.81;5032282;28;20045;-70
2023/04/10 07:24:16;;;;;;;18.40;11.88;;;;;;;7.06;100.00;100672.28;5032083;28;20041;-69
2023/04/10 07:26:43;;;;;;;39.70;21.17;;;;;;;6.79;100.00;100622.91;5032061;28;20048;-69
2023/04/10 07:29:08;;;;;;;17.80;12.32;;;;;;;6.69;100.00;100652.34;5032135;28;20033;-66
2023/04/10 07:31:34;;;;;;;19.77;12.60;;;;;;;6.73;100.00;100666.19;5031885;28;20025;-67
2023/04/10 07:34:00;;;;;;;20.95;12.57;;;;;;;6.52;100.00;100645.34;5031466;28;20042;-67
2023/04/10 07:36:25;;;;;;;20.35;12.43;;;;;;;6.72;100.00;100661.88;5012641;28;20077;-67
2023/04/10 07:38:51;;;;;;;22.17;12.35;;;;;;;6.57;100.00;100626.00;5031711;28;20623;-70
2023/04/10 07:41:17;;;;;;;20.52;13.98;;;;;;;6.88;100.00;100664.50;5030464;28;20494;-67
2023/04/10 07:43:42;;;;;;;24.58;14.50;;;;;;;6.95;100.00;100665.69;5031751;28;20051;-68
2023/04/10 07:46:08;;;;;;;23.20;15.48;;;;;;;6.97;100.00;100661.53;5031416;28;20040;-67
2023/04/10 07:48:33;;;;;;;22.65;14.93;;;;;;;6.92;100.00;100663.84;5031291;28;20049;-70
2023/04/10 07:50:58;;;;;;;22.05;13.10;;;;;;;6.79;100.00;100670.00;5031573;28;20091;-70
2023/04/10 07:53:24;;;;;;;20.70;13.68;;;;;;;6.64;100.00;100664.00;5031544;28;20042;-68
2023/04/10 07:55:49;;;;;;;21.83;13.80;;;;;;;6.59;100.00;100632.06;5031082;28;20046;-70
2023/04/10 07:58:15;;;;;;;19.45;12.95;;;;;;;6.93;100.00;100667.31;5036523;28;20036;-72
2023/04/10 08:00:41;;;;;;;20.08;13.68;;;;;;;6.98;100.00;100660.75;5049809;28;20037;-75
2023/04/10 08:03:06;;;;;;;23.55;13.50;;;;;;;7.00;100.00;100664.25;5049293;28;20029;-75
2023/04/10 08:05:32;;;;;;;23.58;15.63;;;;;;;6.98;100.00;100663.31;5049631;28;20029;-70
2023/04/10 08:07:58;;;;;;;21.33;12.70;;;;;;;6.95;100.00;100661.47;5050129;28;20483;-73
2023/04/10 08:10:24;;;;;;;26.73;12.68;;;;;;;7.10;100.00;100642.53;5050638;28;20056;-72
2023/04/10 08:12:49;;;;;;;20.58;12.35;;;;;;;7.15;100.00;100646.22;5050524;28;20041;-73
2023/04/10 08:15:16;;;;;;;21.25;12.60;;;;;;;7.14;100.00;100634.22;5049945;28;20037;-74
2023/04/10 08:17:42;;;;;;;19.95;13.15;;;;;;;7.21;100.00;100641.44;5049661;28;20025;-70
2023/04/10 08:20:08;;;;;;;20.08;12.90;;;;;;;7.33;100.00;100640.31;5049640;28;20044;-72
2023/04/10 08:22:34;;;;;;;18.08;13.13;;;;;;;7.35;100.00;100633.56;5050278;28;20474;-71
2023/04/10 08:24:59;;;;;;;18.38;12.32;;;;;;;7.03;100.00;100596.78;5050440;28;20071;-71
2023/04/10 08:27:24;;;;;;;21.67;13.38;;;;;;;7.19;100.00;100616.47;5050464;28;20501;-74
2023/04/10 08:29:50;;;;;;;25.58;15.30;;;;;;;6.98;100.00;100586.31;5049627;28;20510;-73
2023/04/10 08:32:15;;;;;;;22.05;15.50;;;;;;;7.07;100.00;100647.53;5050074;28;20033;-74
2023/04/10 08:34:40;;;;;;;27.90;17.92;;;;;;;7.17;100.00;100631.81;5050401;28;20041;-70
2023/04/10 08:37:08;;;;;;;28.17;20.17;;;;;;;7.20;100.00;100629.41;5050032;28;20041;-69
2023/04/10 08:39:37;;;;;;;28.05;19.10;;;;;;;7.24;100.00;100612.47;5050208;28;20392;-69
2023/04/10 08:42:05;;;;;;;23.60;17.08;;;;;;;7.54;100.00;100625.13;5050121;28;20028;-72
2023/04/10 08:44:31;;;;;;;23.02;15.70;;;;;;;7.62;100.00;100605.88;5040644;28;20026;-74
2023/04/10 08:47:00;;;;;;;23.13;14.55;;;;;;;7.73;100.00;100603.84;5044928;28;20143;-73
2023/04/10 08:49:47;;;;;;;20.42;14.73;;;;;;;8.01;100.00;100628.34;5030413;28;20115;-74
2023/04/10 08:52:18;;;;;;;20.23;14.20;;;;;;;8.07;100.00;100626.09;5036203;28;20063;-73
2023/04/10 08:54:49;;;;;;;20.48;14.52;;;;;;;8.10;100.00;100621.97;5033005;28;20037;-74
2023/04/10 08:57:19;;;;;;;18.95;12.77;;;;;;;8.23;100.00;100623.47;5041544;28;20088;-72
2023/04/10 08:59:50;;;;;;;20.50;14.27;;;;;;;8.07;100.00;100574.66;5025978;28;20033;-73
2023/04/10 09:02:16;;;;;;;37.08;25.27;;;;;;;8.32;100.00;100622.16;5034185;28;20037;-71
2023/04/10 09:04:50;;;;;;;17.60;12.57;;;;;;;8.33;100.00;100598.19;5037255;28;20033;-72
2023/04/10 09:07:16;;;;;;;18.00;12.07;;;;;;;8.47;100.00;100602.31;5047163;28;20457;-72
2023/04/10 09:09:42;;;;;;;17.67;10.95;;;;;;;8.54;100.00;100591.53;5044211;28;20064;-72
2023/04/10 09:12:08;;;;;;;18.65;11.60;;;;;;;8.66;100.00;100595.47;5049570;28;20624;-72
2023/04/10 09:14:34;;;;;;;15.95;12.05;;;;;;;8.77;100.00;100601.13;5043389;28;20032;-70
2023/04/10 09:17:22;;;;;;;16.15;11.48;;;;;;;8.88;100.00;100594.78;5028331;28;20042;-71
2023/04/10 09:19:56;;;;;;;13.13;9.48;;;;;;;8.79;100.00;100569.50;5043853;28;20462;-71
2023/04/10 09:22:34;;;;;;;10.35;8.50;;;;;;;9.06;100.00;100595.63;5034750;28;20039;-70
2023/04/10 09:25:00;;;;;;;11.50;8.20;;;;;;;9.18;100.00;100585.00;5039894;28;20033;-70
2023/04/10 09:27:34;;;;;;;9.98;7.72;;;;;;;9.19;100.00;100560.09;5042649;28;20124;-71
2023/04/10 09:30:01;;;;;;;11.82;8.40;;;;;;;9.56;100.00;100590.06;5032844;28;20471;-70
2023/04/10 09:32:43;;;;;;;10.15;7.70;;;;;;;9.62;100.00;100590.31;5009996;28;20038;-71
2023/04/10 09:35:13;;;;;;;11.77;7.32;;;;;;;9.64;100.00;100580.94;5027812;28;20128;-71
2023/04/10 09:37:41;;;;;;;8.50;7.05;;;;;;;9.66;100.00;100568.13;5033944;28;20033;-71
2023/04/10 09:40:19;;;;;;;8.95;6.93;;;;;;;9.74;100.00;100563.28;5034823;28;20092;-73
2023/04/10 09:42:45;;;;;;;8.93;6.10;;;;;;;9.84;100.00;100574.06;5038828;28;20041;-71
2023/04/10 09:45:10;;;;;;;8.48;6.32;;;;;;;9.87;100.00;100576.75;5043446;28;20041;-70
2023/04/10 09:47:36;;;;;;;8.40;6.40;;;;;;;9.94;100.00;100566.69;5049028;28;20555;-72
2023/04/10 09:50:02;;;;;;;8.77;6.82;;;;;;;10.03;100.00;100560.22;5049772;28;20125;-72
2023/04/10 09:52:37;;;;;;;7.47;5.43;;;;;;;10.10;100.00;100565.63;5040448;28;20040;-69
2023/04/10 09:55:07;;;;;;;8.52;6.07;;;;;;;10.12;100.00;100564.88;5052965;28;20041;-68
2023/04/10 09:57:34;;;;;;;10.30;6.63;;;;;;;10.15;100.00;100546.91;5048138;28;20045;-69
2023/04/10 10:00:05;;;;;;;9.55;6.93;;;;;;;10.22;100.00;100549.75;5053852;28;20032;-71
2023/04/10 10:02:35;;;;;;;7.22;5.80;;;;;;;10.20;100.00;100554.84;5053475;28;20040;-68
2023/04/10 10:05:02;;;;;;;;;;;;;;;10.31;100.00;100557.84;5053326;28;20033;-67
2023/04/10 10:07:29;;;;;;;10.98;6.18;;;;;;;10.33;100.00;100557.09;5052916;28;19912;-71
2023/04/10 10:09:56;;;;;;;8.73;6.22;;;;;;;10.32;100.00;100549.31;5052467;28;20057;-67
2023/04/10 10:12:29;;;;;;;8.65;6.75;;;;;;;10.39;100.00;100537.53;5052510;28;20107;-66
2023/04/10 10:15:10;;;;;;;8.82;6.28;;;;;;;10.47;100.00;100543.88;5052622;28;20049;-72
2023/04/10 10:17:50;;;;;;;7.63;6.03;;;;;;;10.48;100.00;100537.88;5040899;28;20075;-71
2023/04/10 10:20:22;;;;;;;11.25;7.88;;;;;;;10.54;100.00;100542.41;5045743;28;20045;-69
2023/04/10 10:22:49;;;;;;;13.70;9.43;;;;;;;10.59;100.00;100536.63;5038520;28;20029;-70
2023/04/10 10:25:15;;;;;;;12.20;7.97;;;;;;;10.56;100.00;100523.56;5037416;28;20076;-71
2023/04/10 10:28:04;;;;;;;9.57;7.05;;;;;;;10.60;100.00;100527.16;5007132;28;20113;-69
2023/04/10 10:30:33;;;;;;;10.48;6.43;;;;;;;10.62;100.00;100534.13;5021432;28;20052;-70
2023/04/10 10:33:01;;;;;;;9.23;6.15;;;;;;;10.72;100.00;100537.09;5012153;28;20057;-70
2023/04/10 10:35:29;;;;;;;9.20;6.50;;;;;;;10.66;100.00;100532.56;5007877;28;20460;-70
2023/04/10 10:38:01;;;;;;;9.40;6.95;;;;;;;10.75;100.00;100532.88;5007856;28;20045;-69
2023/04/10 10:40:43;;;;;;;12.05;7.72;;;;;;;10.77;100.00;100525.22;5002458;28;20045;-69
2023/04/10 10:43:41;;;;;;;9.98;6.93;;;;;;;10.79;100.00;100520.97;5021995;28;20045;-70
2023/04/10 10:46:10;;;;;;;8.48;5.97;;;;;;;10.64;100.00;100500.63;5007607;28;20565;-71
2023/04/10 10:48:35;;;;;;;10.32;6.22;;;;;;;10.71;100.00;100512.06;5007183;28;20045;-70
2023/04/10 10:51:02;;;;;;;10.40;6.43;;;;;;;10.82;100.00;100511.63;5007080;28;20112;-71
2023/04/10 10:53:32;;;;;;;7.60;5.85;;;;;;;10.90;100.00;100513.63;5007274;28;20077;-68
2023/04/10 10:55:57;;;;;;;8.77;6.20;;;;;;;10.84;100.00;100498.75;5006934;28;20414;-69
2023/04/10 10:58:45;;;;;;;8.25;5.97;;;;;;;10.89;100.00;100509.28;4998997;28;20038;-71
2023/04/10 11:01:10;;;;;;;7.88;5.78;;;;;;;10.90;100.00;100491.25;5024963;28;21517;-69
2023/04/10 11:03:36;;;;;;;8.40;6.03;;;;;;;10.92;100.00;100497.34;5025921;28;20107;-70
2023/04/10 11:06:05;;;;;;;8.38;6.00;;;;;;;10.94;100.00;100489.66;5026325;28;20587;-70
2023/04/10 11:08:43;;;;;;;7.28;5.28;;;;;;;10.96;100.00;100491.47;5026728;28;20037;-71
2023/04/10 11:11:22;;;;;;;9.57;5.82;;;;;;;10.99;100.00;100490.69;5023653;28;20255;-69
2023/04/10 11:13:56;;;;;;;6.95;4.90;;;;;;;11.04;100.00;100494.34;5023314;28;20048;-67
2023/04/10 11:16:43;;;;;;;8.25;5.47;;;;;;;11.10;100.00;100484.22;5026327;28;20038;-68